Time;durP1;ratioP1;P1;durP2;ratioP2;P2;SDS_P1;SDS_P2;PMS_P1;PMS_P2;Temp;Humidity;BMP_temperature;BMP_pressure;BME280_temperature;BME280_humidity;BME280_pressure;Samples;Min_cycle;Max_cycle;Signal;HPM_P1;HPM_P2
2023/07/04 00:01:20;;;;;;;;;3.50;3.00;;;;;20.76;95.62;101238.78;5117392;27;45359;-80
2023/07/04 00:03:50;;;;;;;;;1.00;1.00;;;;;20.81;95.07;101236.72;5116602;27;45490;-81
2023/07/04 00:06:17;;;;;;;;;2.00;2.00;;;;;20.72;96.01;101241.75;5117399;27;45427;-82
2023/07/04 00:08:43;;;;;;;;;3.75;2.00;;;;;20.72;95.49;101239.94;5117221;27;45519;-79
2023/07/04 00:11:09;;;;;;;;;3.00;2.00;;;;;20.70;94.82;101239.19;5117029;27;45420;-79
2023/07/04 00:13:36;;;;;;;;;4.25;2.00;;;;;20.64;95.43;101232.50;5116810;27;45324;-79
2023/07/04 00:16:11;;;;;;;;;2.00;1.25;;;;;20.61;96.07;101237.13;5098790;27;45560;-81
2023/07/04 00:18:36;;;;;;;;;4.00;3.00;;;;;20.55;96.20;101235.69;5098738;27;45491;-81
2023/07/04 00:21:03;;;;;;;;;3.50;1.50;;;;;20.55;96.58;101238.34;5098716;27;45380;-81
2023/07/04 00:23:34;;;;;;;;;5.25;1.25;;;;;20.52;97.74;101241.16;5116661;27;45416;-82
2023/07/04 00:25:59;;;;;;;;;4.75;2.75;;;;;20.48;97.61;101237.03;5116627;27;45478;-81
2023/07/04 00:28:25;;;;;;;;;2.00;2.00;;;;;20.44;97.19;101246.94;5116557;27;46557;-79
2023/07/04 00:30:52;;;;;;;;;2.25;1.00;;;;;20.37;98.08;101239.50;5098650;27;45848;-79
2023/07/04 00:33:19;;;;;;;;;2.00;2.00;;;;;20.33;98.40;101240.63;5117219;27;45290;-80
2023/07/04 00:35:45;;;;;;;;;4.00;3.00;;;;;20.34;98.94;101237.91;5098190;27;45341;-81
2023/07/04 00:38:15;;;;;;;;;4.75;3.00;;;;;20.34;99.12;101243.19;5116727;27;47076;-80
2023/07/04 00:40:40;;;;;;;;;3.25;2.00;;;;;20.31;100.00;101243.38;5116785;27;45974;-80
2023/07/04 00:43:10;;;;;;;;;6.25;2.75;;;;;20.25;100.00;101236.66;5116804;27;45341;-80
2023/07/04 00:45:42;;;;;;;;;1.00;1.00;;;;;20.23;100.00;101240.34;5116621;27;45440;-80
2023/07/04 00:48:10;;;;;;;;;1.25;1.25;;;;;20.24;100.00;101244.69;5099092;27;47193;-80
2023/07/04 00:50:39;;;;;;;;;2.50;2.25;;;;;20.24;100.00;101242.03;5098216;27;45274;-80
2023/07/04 00:53:08;;;;;;;;;4.50;1.25;;;;;20.25;100.00;101241.09;5116873;27;45510;-80
2023/07/04 00:55:37;;;;;;;;;1.50;1.50;;;;;20.21;100.00;101239.59;5098205;27;45388;-80
2023/07/04 00:58:04;;;;;;;;;0.75;0.75;;;;;20.22;100.00;101246.56;5116120;27;45526;-80
2023/07/04 01:00:30;;;;;;;;;1.00;1.00;;;;;20.22;100.00;101239.47;5116529;27;45464;-80
2023/07/04 01:03:05;;;;;;;;;0.25;0.25;;;;;20.26;100.00;101234.88;5108399;27;45321;-80
2023/07/04 01:05:54;;;;;;;;;0.75;0.75;;;;;20.29;100.00;101239.97;5112101;27;45442;-80
2023/07/04 01:08:26;;;;;;;;;2.00;1.00;;;;;20.25;100.00;101236.66;5117706;27;46223;-80
2023/07/04 01:10:52;;;;;;;;;1.75;0.00;;;;;20.27;100.00;101245.34;5099395;27;45422;-79
2023/07/04 01:13:39;;;;;;;;;1.50;0.00;;;;;20.30;100.00;101241.69;5100978;27;60420;-79
2023/07/04 01:16:09;;;;;;;;;0.75;0.75;;;;;20.33;100.00;101251.22;5120099;27;45231;-80
2023/07/04 01:18:35;;;;;;;;;4.00;1.00;;;;;20.25;100.00;101249.88;5119491;27;47447;-78
2023/07/04 01:21:05;;;;;;;;;0.75;0.00;;;;;20.30;100.00;101247.81;5101721;27;45722;-80
2023/07/04 01:23:43;;;;;;;;;1.00;1.00;;;;;20.31;100.00;101248.66;5119699;27;45465;-80
2023/07/04 01:26:21;;;;;;;;;1.75;1.75;;;;;20.35;100.00;101246.66;5101045;27;45449;-80
2023/07/04 01:28:47;;;;;;;;;1.00;1.00;;;;;20.30;100.00;101244.31;5119442;27;45310;-80
2023/07/04 01:31:13;;;;;;;;;3.00;1.00;;;;;20.18;100.00;101247.72;5101288;27;48350;-80
2023/07/04 01:33:40;;;;;;;;;0.25;0.00;;;;;20.23;100.00;101245.66;5119170;27;60581;-79
2023/07/04 01:36:09;;;;;;;;;0.50;0.00;;;;;20.23;100.00;101261.50;5119626;27;45262;-80
2023/07/04 01:38:34;;;;;;;;;1.00;1.00;;;;;20.20;100.00;101256.41;5101269;27;46481;-79
2023/07/04 01:41:01;;;;;;;;;2.00;1.00;;;;;20.18;100.00;101267.06;5118813;27;45499;-80
2023/07/04 01:43:26;;;;;;;;;3.00;1.25;;;;;20.11;100.00;101260.44;5119764;27;45422;-80
2023/07/04 01:45:52;;;;;;;;;1.50;1.00;;;;;20.10;100.00;101267.53;5119504;27;45444;-79
2023/07/04 01:48:17;;;;;;;;;3.50;1.25;;;;;20.08;100.00;101268.56;5100973;27;48167;-79
2023/07/04 01:50:43;;;;;;;;;4.00;1.00;;;;;20.06;100.00;101271.31;5119061;27;45400;-80
2023/07/04 01:53:08;;;;;;;;;2.00;1.25;;;;;20.03;100.00;101268.84;5118633;27;66108;-79
2023/07/04 01:55:34;;;;;;;;;4.25;2.75;;;;;19.97;100.00;101260.44;5119174;27;45288;-80
2023/07/04 01:58:00;;;;;;;;;3.50;1.00;;;;;19.95;100.00;101257.88;5118821;27;52155;-80
2023/07/04 02:00:26;;;;;;;;;1.25;1.00;;;;;19.94;100.00;101255.34;5118931;27;45831;-79
2023/07/04 02:02:51;;;;;;;;;2.00;0.75;;;;;19.97;100.00;101253.34;5119153;27;45427;-80
2023/07/04 02:05:19;;;;;;;;;1.75;0.75;;;;;19.96;100.00;101249.00;5118443;27;63570;-81
2023/07/04 02:07:45;;;;;;;;;2.50;1.75;;;;;19.98;100.00;101243.63;5119091;27;46443;-80
2023/07/04 02:10:10;;;;;;;;;1.00;0.75;;;;;19.94;100.00;101253.53;5082332;27;46268;-80
2023/07/04 02:12:36;;;;;;;;;2.00;2.00;;;;;19.91;100.00;101256.38;5098215;27;67231;-80
2023/07/04 02:15:01;;;;;;;;;1.00;1.00;;;;;19.86;100.00;101259.28;5100766;27;45386;-80
2023/07/04 02:17:26;;;;;;;;;2.00;1.75;;;;;19.82;100.00;101255.13;5118901;27;46139;-80
2023/07/04 02:19:52;;;;;;;;;1.50;1.00;;;;;19.82;100.00;101255.13;5117850;27;66504;-80
2023/07/04 02:22:17;;;;;;;;;3.75;1.00;;;;;19.79;100.00;101246.53;5118994;27;45332;-80
2023/07/04 02:24:42;;;;;;;;;2.25;2.00;;;;;19.72;100.00;101241.63;5117674;27;63607;-80
2023/07/04 02:27:08;;;;;;;;;1.25;1.00;;;;;19.66;100.00;101233.16;5118669;27;46074;-80
2023/07/04 02:29:33;;;;;;;;;1.25;1.00;;;;;19.62;100.00;101232.50;5118290;27;62254;-80
2023/07/04 02:31:58;;;;;;;;;3.25;2.00;;;;;19.62;100.00;101232.50;5118214;27;52701;-79
2023/07/04 02:34:24;;;;;;;;;1.00;0.75;;;;;19.61;100.00;101228.16;5099580;27;64570;-80
2023/07/04 02:36:49;;;;;;;;;2.25;0.75;;;;;19.65;100.00;101234.97;5118349;27;45422;-80
2023/07/04 02:39:14;;;;;;;;;0.00;0.00;;;;;19.62;100.00;101232.50;5117713;27;60312;-80
2023/07/04 02:41:40;;;;;;;;;1.50;1.00;;;;;19.64;100.00;101238.53;5118812;27;45243;-80
2023/07/04 02:44:05;;;;;;;;;2.00;1.00;;;;;19.62;100.00;101234.31;5117683;27;60339;-80
2023/07/04 02:46:30;;;;;;;;;3.75;1.00;;;;;19.60;100.00;101220.34;5118351;27;45331;-80
2023/07/04 02:48:56;;;;;;;;;2.00;1.00;;;;;19.64;100.00;101222.69;5117694;27;69611;-80
2023/07/04 02:51:21;;;;;;;;;3.75;1.75;;;;;19.59;100.00;101221.28;5117579;27;66441;-80
2023/07/04 02:53:46;;;;;;;;;1.00;1.00;;;;;19.53;100.00;101233.03;5117146;27;59613;-80
2023/07/04 02:56:12;;;;;;;;;2.00;1.00;;;;;19.51;100.00;101222.56;5099973;27;46418;-80
2023/07/04 02:58:37;;;;;;;;;0.00;0.00;;;;;19.52;100.00;101231.38;5118286;27;45503;-80
2023/07/04 03:01:04;;;;;;;;;1.25;1.00;;;;;19.52;100.00;101226.94;5117850;27;55079;-80
2023/07/04 03:03:29;;;;;;;;;1.00;1.00;;;;;19.53;100.00;101228.59;5117795;27;45417;-80
2023/07/04 03:05:56;;;;;;;;;5.25;2.00;;;;;19.50;100.00;101223.53;5118079;27;45444;-80
2023/07/04 03:08:21;;;;;;;;;3.00;1.00;;;;;19.50;100.00;101223.53;5117966;27;45383;-81
2023/07/04 03:10:47;;;;;;;;;1.50;1.00;;;;;19.46;100.00;101221.13;5118368;27;45442;-80
2023/07/04 03:13:12;;;;;;;;;1.00;1.00;;;;;19.45;100.00;101220.31;5099359;27;45415;-80
2023/07/04 03:15:37;;;;;;;;;1.00;0.75;;;;;19.43;100.00;101213.41;5117910;27;45424;-80
2023/07/04 03:18:03;;;;;;;;;1.00;1.00;;;;;19.52;100.00;101223.44;5117203;27;66894;-79
2023/07/04 03:20:28;;;;;;;;;2.50;0.25;;;;;19.47;100.00;101226.34;5118124;27;45403;-79
2023/07/04 03:22:54;;;;;;;;;2.75;1.25;;;;;19.42;100.00;101217.00;5098970;27;45424;-79
2023/07/04 03:25:19;;;;;;;;;2.25;1.00;;;;;19.45;100.00;101222.09;5117754;27;46336;-79
2023/07/04 03:27:45;;;;;;;;;0.00;0.00;;;;;19.25;100.00;101224.09;5117809;27;45416;-80
2023/07/04 03:30:11;;;;;;;;;2.50;1.75;;;;;19.43;100.00;101216.91;5117259;27;45383;-79
2023/07/04 03:32:37;;;;;;;;;2.25;1.00;;;;;19.50;100.00;101220.88;5117388;27;45371;-80
2023/07/04 03:35:02;;;;;;;;;1.00;1.00;;;;;19.53;100.00;101212.75;5117540;27;46467;-80
2023/07/04 03:37:29;;;;;;;;;3.25;1.00;;;;;19.49;100.00;101213.88;5117124;27;45494;-79
2023/07/04 03:39:56;;;;;;;;;0.00;0.00;;;;;19.51;100.00;101213.81;5117848;27;45360;-80
2023/07/04 03:42:21;;;;;;;;;2.00;1.00;;;;;19.39;100.00;101201.31;5117520;27;45270;-79
2023/07/04 03:44:46;;;;;;;;;1.00;1.00;;;;;19.47;100.00;101215.78;5116439;27;46198;-79
2023/07/04 03:47:12;;;;;;;;;1.25;1.00;;;;;19.51;100.00;101219.94;5115906;27;67555;-81
2023/07/04 03:49:37;;;;;;;;;3.00;1.00;;;;;19.54;100.00;101218.91;5117057;27;53459;-79
2023/07/04 03:52:03;;;;;;;;;1.50;1.50;;;;;19.56;100.00;101216.16;5116232;27;64383;-79
2023/07/04 03:54:28;;;;;;;;;4.00;1.00;;;;;19.56;100.00;101213.53;5117326;27;45392;-80
2023/07/04 03:56:53;;;;;;;;;2.50;2.25;;;;;19.51;100.00;101219.94;5098366;27;56544;-80
2023/07/04 03:59:19;;;;;;;;;4.75;1.75;;;;;19.50;100.00;101214.72;5117410;27;45234;-80
2023/07/04 04:01:45;;;;;;;;;1.25;1.00;;;;;19.42;100.00;101209.06;5116644;27;65909;-80
2023/07/04 04:04:10;;;;;;;;;1.75;0.25;;;;;19.24;100.00;101209.22;5080279;27;46651;-80
2023/07/04 04:06:36;;;;;;;;;1.00;1.00;;;;;19.24;100.00;101216.25;5096257;27;45358;-80
2023/07/04 04:09:01;;;;;;;;;2.25;1.25;;;;;19.20;100.00;101210.31;5096735;27;45229;-80
2023/07/04 04:11:27;;;;;;;;;4.00;1.00;;;;;19.39;100.00;101209.22;5077684;27;65519;-80
2023/07/04 04:13:53;;;;;;;;;0.75;0.00;;;;;19.38;100.00;101204.91;5096490;27;46501;-80
2023/07/04 04:16:18;;;;;;;;;2.00;0.50;;;;;19.46;100.00;101215.84;5096261;27;45350;-80
2023/07/04 04:18:44;;;;;;;;;1.50;1.00;;;;;19.43;100.00;101210.78;5078421;27;45475;-80
2023/07/04 04:21:09;;;;;;;;;3.50;1.00;;;;;19.37;100.00;101211.13;5095307;27;63391;-80
2023/07/04 04:23:34;;;;;;;;;2.75;1.00;;;;;19.33;100.00;101213.97;5096451;27;45395;-80
2023/07/04 04:26:00;;;;;;;;;1.25;1.00;;;;;19.22;100.00;101205.78;5095559;27;65279;-80
2023/07/04 04:28:26;;;;;;;;;1.50;1.00;;;;;19.23;100.00;101223.34;5096502;27;45480;-80
2023/07/04 04:30:51;;;;;;;;;2.50;1.00;;;;;19.13;100.00;101214.25;5078120;27;45347;-80
2023/07/04 04:33:20;;;;;;;;;0.00;0.00;;;;;19.14;100.00;101214.16;5113655;27;57361;-80
2023/07/04 04:35:45;;;;;;;;;1.50;1.00;;;;;19.12;100.00;101216.03;5116317;27;45707;-80
2023/07/04 04:38:11;;;;;;;;;0.25;0.25;;;;;19.09;100.00;101226.78;5098598;27;45358;-80
2023/07/04 04:40:37;;;;;;;;;2.00;1.00;;;;;18.98;100.00;101209.84;5115929;27;69471;-80
2023/07/04 04:43:02;;;;;;;;;2.75;1.00;;;;;18.99;100.00;101209.75;5119306;27;45315;-80
2023/07/04 04:45:28;;;;;;;;;2.25;0.00;;;;;19.09;100.00;101212.72;5120605;27;45368;-80
2023/07/04 04:47:54;;;;;;;;;1.00;1.00;;;;;19.17;100.00;101225.47;5120317;27;45326;-80
2023/07/04 04:50:24;;;;;;;;;2.50;1.75;;;;;19.17;100.00;101218.41;5120167;27;45354;-81
2023/07/04 04:52:50;;;;;;;;;0.50;0.50;;;;;19.16;100.00;101219.34;5120184;27;45385;-80
2023/07/04 04:55:16;;;;;;;;;2.00;1.00;;;;;19.14;100.00;101221.22;5120436;27;45235;-80
2023/07/04 04:57:41;;;;;;;;;2.00;1.00;;;;;19.10;100.00;101224.97;5120543;27;45369;-80
2023/07/04 05:00:07;;;;;;;;;3.75;1.00;;;;;19.08;100.00;101219.78;5101996;27;45458;-80
2023/07/04 05:02:33;;;;;;;;;5.00;2.00;;;;;19.11;100.00;101214.34;5115283;27;46473;-80
2023/07/04 05:04:59;;;;;;;;;0.25;0.25;;;;;19.22;100.00;101223.41;5080905;27;45500;-80
2023/07/04 05:07:25;;;;;;;;;3.75;1.00;;;;;19.22;100.00;101218.13;5099592;27;45428;-80
2023/07/04 05:09:54;;;;;;;;;4.00;1.00;;;;;19.27;100.00;101229.28;5099642;27;45427;-80
2023/07/04 05:12:20;;;;;;;;;2.25;2.25;;;;;19.31;100.00;101217.59;5081176;27;46221;-80
2023/07/04 05:14:45;;;;;;;;;1.50;1.00;;;;;19.38;100.00;101228.66;5081250;27;45745;-80
2023/07/04 05:17:10;;;;;;;;;1.00;0.00;;;;;19.39;100.00;101233.88;5098738;27;54364;-80
2023/07/04 05:19:36;;;;;;;;;6.50;1.00;;;;;19.44;100.00;101230.94;5099511;27;45565;-80
2023/07/04 05:22:01;;;;;;;;;1.00;1.00;;;;;19.50;100.00;101227.94;5098488;27;70522;-80
2023/07/04 05:24:26;;;;;;;;;3.75;0.75;;;;;19.51;100.00;101235.78;5098903;27;60303;-80
2023/07/04 05:26:52;;;;;;;;;2.25;1.00;;;;;19.53;100.00;101225.13;5099196;27;45320;-80
2023/07/04 05:29:17;;;;;;;;;1.00;1.00;;;;;19.49;100.00;101218.34;5099129;27;45291;-80
2023/07/04 05:31:43;;;;;;;;;3.50;1.00;;;;;19.51;100.00;101217.28;5103122;27;45286;-80
2023/07/04 05:34:08;;;;;;;;;1.50;1.00;;;;;19.51;100.00;101217.28;5119039;27;65141;-80
2023/07/04 05:36:33;;;;;;;;;0.75;0.75;;;;;19.54;100.00;101218.91;5118931;27;60594;-80
2023/07/04 05:39:02;;;;;;;;;3.00;1.75;;;;;19.60;100.00;101231.75;5101321;27;45513;-81
2023/07/04 05:41:30;;;;;;;;;3.25;1.00;;;;;19.70;100.00;101232.88;5119495;27;45432;-80
2023/07/04 05:43:56;;;;;;;;;2.50;1.50;;;;;19.74;100.00;101228.31;5101227;27;45829;-80
2023/07/04 05:46:22;;;;;;;;;1.75;1.75;;;;;19.77;100.00;101228.13;5119156;27;45278;-80
2023/07/04 05:48:48;;;;;;;;;3.00;1.00;;;;;19.80;100.00;101227.97;5101320;27;45393;-80
2023/07/04 05:51:15;;;;;;;;;1.50;1.00;;;;;19.83;100.00;101226.91;5100018;27;71862;-80
2023/07/04 05:53:42;;;;;;;;;1.00;1.00;;;;;19.89;100.00;101235.34;5100325;27;45653;-80
2023/07/04 05:56:12;;;;;;;;;3.00;2.00;;;;;19.97;100.00;101226.94;5119443;27;45303;-80
2023/07/04 05:58:39;;;;;;;;;2.00;1.00;;;;;20.07;100.00;101236.00;5119499;27;45390;-79
2023/07/04 06:01:05;;;;;;;;;1.50;1.00;;;;;20.17;100.00;101235.44;5118133;27;46333;-80
2023/07/04 06:03:30;;;;;;;;;1.00;1.00;;;;;20.25;100.00;101226.09;5118145;27;45381;-80
2023/07/04 06:05:55;;;;;;;;;0.00;0.00;;;;;20.37;100.00;101228.91;5118357;27;64717;-80
2023/07/04 06:08:21;;;;;;;;;2.00;0.50;;;;;20.44;100.00;101238.16;5118521;27;67854;-80
2023/07/04 06:11:03;;;;;;;;;2.50;1.00;;;;;20.48;100.00;101226.44;5118205;27;73857;-80
2023/07/04 06:13:28;;;;;;;;;1.50;1.00;;;;;20.51;100.00;101226.25;5118612;27;45326;-80
2023/07/04 06:15:55;;;;;;;;;5.00;1.50;;;;;20.47;100.00;101224.75;5118791;27;45573;-81
2023/07/04 06:18:20;;;;;;;;;3.25;1.00;;;;;20.40;100.00;101213.72;5117623;27;45550;-77
2023/07/04 06:20:45;;;;;;;;;5.00;1.00;;;;;20.34;100.00;101215.88;5117480;27;64431;-78
2023/07/04 06:23:11;;;;;;;;;1.00;1.00;;;;;20.29;100.00;101216.19;5117148;27;67849;-77
2023/07/04 06:25:36;;;;;;;;;2.50;2.00;;;;;20.23;100.00;101216.56;5118262;27;58193;-77
2023/07/04 06:28:01;;;;;;;;;1.00;1.00;;;;;20.23;100.00;101216.56;5100302;27;58918;-78
2023/07/04 06:30:29;;;;;;;;;3.00;2.00;;;;;20.27;100.00;101218.91;5109570;27;65134;-77
2023/07/04 06:32:56;;;;;;;;;4.50;1.25;;;;;20.30;100.00;101217.88;5118263;27;45233;-77
2023/07/04 06:35:21;;;;;;;;;3.00;1.00;;;;;20.41;100.00;101225.13;5111777;27;45395;-78
2023/07/04 06:37:46;;;;;;;;;2.00;1.00;;;;;20.45;100.00;101216.91;5079479;27;45396;-78
2023/07/04 06:40:12;;;;;;;;;1.00;1.00;;;;;20.62;100.00;101220.34;5117194;27;56152;-79
2023/07/04 06:42:37;;;;;;;;;1.00;0.25;;;;;20.76;100.00;101219.44;5101859;27;45415;-78
2023/07/04 06:45:03;;;;;;;;;3.50;1.75;;;;;20.87;100.00;101223.06;5097546;27;45514;-77
2023/07/04 06:47:28;;;;;;;;;2.00;1.00;;;;;20.99;100.00;101217.97;5097538;27;45355;-78
2023/07/04 06:49:54;;;;;;;;;3.00;2.00;;;;;21.13;100.00;101217.03;5114311;27;46443;-77
2023/07/04 06:52:19;;;;;;;;;2.75;1.00;;;;;21.23;100.00;101229.59;5117810;27;45449;-78
2023/07/04 06:54:48;;;;;;;;;4.50;1.00;;;;;21.39;100.00;101225.91;5118134;27;48975;-77
2023/07/04 06:57:13;;;;;;;;;2.00;1.75;;;;;21.44;100.00;101221.16;5118242;27;45450;-78
2023/07/04 06:59:39;;;;;;;;;3.75;2.75;;;;;21.54;100.00;101232.84;5117838;27;47022;-77
2023/07/04 07:02:05;;;;;;;;;2.00;1.00;;;;;21.58;100.00;101234.38;5117823;27;45328;-78
2023/07/04 07:04:31;;;;;;;;;1.75;1.00;;;;;21.63;100.00;101236.69;5117894;27;45335;-78
2023/07/04 07:06:56;;;;;;;;;4.00;2.75;;;;;21.59;100.00;101236.03;5116926;27;45527;-78
2023/07/04 07:09:22;;;;;;;;;2.75;1.00;;;;;21.62;100.00;101240.31;5115321;27;70182;-78
2023/07/04 07:11:47;;;;;;;;;2.00;1.00;;;;;21.67;100.00;101243.47;5092741;27;45580;-78
2023/07/04 07:14:12;;;;;;;;;1.75;1.75;;;;;21.71;100.00;101239.69;5116913;27;45388;-79
2023/07/04 07:16:38;;;;;;;;;3.75;1.00;;;;;21.80;100.00;101246.13;5111797;27;59358;-79
2023/07/04 07:19:03;;;;;;;;;2.75;2.00;;;;;21.79;100.00;101242.66;5109045;27;70473;-79
2023/07/04 07:21:28;;;;;;;;;4.50;1.75;;;;;21.81;100.00;101237.25;5111253;27;45320;-79
2023/07/04 07:23:54;;;;;;;;;2.00;1.00;;;;;21.80;100.00;101235.53;5110602;27;45435;-79
2023/07/04 07:26:21;;;;;;;;;1.50;1.50;;;;;21.76;100.00;101242.84;5112754;27;45470;-79
2023/07/04 07:28:47;;;;;;;;;4.75;1.50;;;;;21.78;100.00;101238.28;5100229;27;46650;-80
2023/07/04 07:31:15;;;;;;;;;6.25;2.75;;;;;21.72;100.00;101232.56;5102476;27;45384;-78
2023/07/04 07:33:45;;;;;;;;;3.25;1.00;;;;;21.73;100.00;101231.59;5098950;27;45339;-79
2023/07/04 07:36:14;;;;;;;;;2.75;2.50;;;;;21.71;100.00;101230.84;5094392;27;45462;-79
2023/07/04 07:38:40;;;;;;;;;3.00;2.00;;;;;21.61;100.00;101223.53;5093016;27;46251;-79
2023/07/04 07:41:06;;;;;;;;;1.00;1.00;;;;;21.64;100.00;101220.69;5086871;27;45338;-79
2023/07/04 07:43:32;;;;;;;;;3.00;1.75;;;;;21.69;100.00;101219.53;5078564;27;45428;-79
2023/07/04 07:45:57;;;;;;;;;1.25;1.25;;;;;21.64;100.00;101211.91;5095970;27;45573;-79
2023/07/04 07:48:23;;;;;;;;;4.00;2.00;;;;;21.72;100.00;101224.63;5086615;27;75447;-79
2023/07/04 07:50:48;;;;;;;;;4.00;1.50;;;;;21.80;100.00;101217.84;5095418;27;65475;-78
2023/07/04 07:53:14;;;;;;;;;3.50;3.00;;;;;21.91;100.00;101222.38;5092149;27;45499;-79
2023/07/04 07:55:40;;;;;;;;;1.00;0.75;;;;;21.93;100.00;101207.22;5085334;27;45501;-77
2023/07/04 07:58:06;;;;;;;;;1.00;1.00;;;;;22.01;100.00;101214.66;5079924;27;46839;-77
2023/07/04 08:00:31;;;;;;;;;1.00;1.00;;;;;22.06;100.00;101209.03;5095058;27;66093;-78
2023/07/04 08:02:56;;;;;;;;;2.50;0.00;;;;;22.12;100.00;101211.25;5094193;27;47861;-77
2023/07/04 08:05:22;;;;;;;;;1.00;0.75;;;;;22.09;100.00;101212.31;5094820;27;60054;-77
2023/07/04 08:07:47;;;;;;;;;2.00;1.00;;;;;22.27;100.00;101210.22;5094668;27;71424;-78
2023/07/04 08:10:12;;;;;;;;;2.00;0.00;;;;;22.27;99.56;101204.91;5095861;27;45521;-78
2023/07/04 08:12:38;;;;;;;;;1.00;1.00;;;;;22.30;100.00;101199.38;5094847;27;45483;-77
2023/07/04 08:15:04;;;;;;;;;1.25;0.00;;;;;22.39;100.00;101203.19;5094627;27;67843;-78
2023/07/04 08:17:29;;;;;;;;;2.00;0.75;;;;;22.45;100.00;101202.72;5088720;27;45413;-78
2023/07/04 08:19:54;;;;;;;;;1.50;1.00;;;;;22.56;100.00;101199.31;5093080;27;45299;-77
2023/07/04 08:22:20;;;;;;;;;0.25;0.25;;;;;22.67;99.34;101206.50;5095992;27;45315;-78
2023/07/04 08:24:45;;;;;;;;;1.25;1.00;;;;;22.75;100.00;101197.03;5094420;27;64697;-78
2023/07/04 08:27:10;;;;;;;;;0.50;0.00;;;;;22.80;100.00;101207.28;5092821;27;45450;-78
2023/07/04 08:29:36;;;;;;;;;4.00;1.00;;;;;22.76;99.96;101193.41;5085852;27;71899;-79
2023/07/04 08:32:01;;;;;;;;;2.75;0.50;;;;;22.83;100.00;101193.81;5092532;27;46721;-79
2023/07/04 08:34:27;;;;;;;;;1.00;1.00;;;;;22.91;100.00;101201.22;5093053;27;45390;-78
2023/07/04 08:36:52;;;;;;;;;4.00;1.00;;;;;22.94;100.00;101201.84;5111899;27;45578;-78
2023/07/04 08:39:19;;;;;;;;;3.00;0.25;;;;;22.99;100.00;101188.19;5115497;27;45758;-78
2023/07/04 08:41:44;;;;;;;;;3.75;1.25;;;;;23.10;100.00;101185.63;5107094;27;69446;-79
2023/07/04 08:44:12;;;;;;;;;1.50;1.00;;;;;23.25;100.00;101194.25;5094785;27;45322;-78
2023/07/04 08:46:43;;;;;;;;;1.00;1.00;;;;;23.49;100.00;101194.19;5090400;27;45649;-79
2023/07/04 08:49:48;;;;;;;;;2.75;1.00;;;;;23.68;100.00;101187.47;5092892;27;45393;-79
2023/07/04 08:52:29;;;;;;;;;1.50;1.50;;;;;23.97;98.55;101182.59;5013790;28;45427;-78
2023/07/04 08:54:54;;;;;;;;;1.00;1.00;;;;;24.15;95.71;101189.09;5051999;28;45441;-79
2023/07/04 08:57:40;;;;;;;;;2.75;2.00;;;;;24.12;94.53;101188.50;5052268;28;46640;-79
2023/07/04 09:00:06;;;;;;;;;3.00;2.50;;;;;24.17;94.54;101191.66;5049802;28;45546;-79
2023/07/04 09:02:37;;;;;;;;;1.50;0.75;;;;;24.26;95.03;101184.75;5040420;28;45356;-80
2023/07/04 09:05:16;;;;;;;;;3.50;2.00;;;;;24.38;91.88;101183.75;5039759;28;45450;-79
2023/07/04 09:08:09;;;;;;;;;1.00;0.50;;;;;24.44;89.14;101174.44;5037763;28;46358;-80
2023/07/04 09:10:40;;;;;;;;;0.50;0.50;;;;;24.49;87.54;101159.78;5039383;28;45730;-78
2023/07/04 09:13:10;;;;;;;;;0.75;0.75;;;;;24.56;87.88;101157.53;5039096;28;45725;-80
2023/07/04 09:15:38;;;;;;;;;0.50;0.00;;;;;24.69;84.03;101165.34;5048809;28;45524;-80
2023/07/04 09:18:14;;;;;;;;;0.75;0.75;;;;;24.75;82.83;101175.47;5046902;28;46515;-79
2023/07/04 09:21:04;;;;;;;;;0.00;0.00;;;;;24.81;83.99;101180.28;5032067;28;45591;-80
2023/07/04 09:23:30;;;;;;;;;1.00;1.00;;;;;24.86;84.09;101166.63;5017039;28;45513;-79
2023/07/04 09:25:57;;;;;;;;;0.00;0.00;;;;;24.94;84.45;101161.50;5032812;28;45339;-79
2023/07/04 09:28:23;;;;;;;;;1.00;0.75;;;;;24.96;84.47;101153.38;5074095;27;48625;-79
2023/07/04 09:30:48;;;;;;;;;2.00;1.00;;;;;25.09;85.21;101159.38;5117061;27;45988;-79
2023/07/04 09:33:14;;;;;;;;;2.75;0.75;;;;;25.20;83.45;101164.63;5108047;27;45389;-80
2023/07/04 09:35:41;;;;;;;;;6.25;1.50;;;;;25.39;81.94;101155.97;5108442;27;45330;-80
2023/07/04 09:38:07;;;;;;;;;4.25;1.25;;;;;25.63;81.66;101169.03;5100530;27;46295;-79
2023/07/04 09:40:41;;;;;;;;;2.50;0.75;;;;;25.73;82.16;101162.91;5118051;27;45377;-78
2023/07/04 09:43:08;;;;;;;;;1.00;1.00;;;;;25.69;79.26;101159.66;5100361;27;45369;-79
2023/07/04 09:45:33;;;;;;;;;1.25;1.00;;;;;25.66;79.13;101167.91;5117330;27;45532;-79
2023/07/04 09:47:59;;;;;;;;;0.00;0.00;;;;;25.60;78.12;101165.78;5087653;27;45493;-79
2023/07/04 09:50:27;;;;;;;;;1.00;1.00;;;;;25.67;79.61;101169.63;5112496;27;45668;-79
2023/07/04 09:53:09;;;;;;;;;2.75;0.00;;;;;25.77;79.99;101162.50;5099199;27;45413;-79
2023/07/04 09:55:37;;;;;;;;;1.00;1.00;;;;;25.74;79.00;101157.41;5118232;27;45350;-78
2023/07/04 09:58:23;;;;;;;;;1.00;0.50;;;;;25.69;78.27;101157.81;5114783;27;46642;-79
2023/07/04 10:01:16;;;;;;;;;2.00;1.00;;;;;25.73;78.88;101155.75;5088182;27;45778;-81
2023/07/04 10:03:44;;;;;;;;;2.25;1.50;;;;;25.98;83.07;101157.13;5086796;27;45592;-80
2023/07/04 10:06:10;;;;;;;;;1.50;1.00;;;;;26.38;81.38;101152.78;5089246;27;45477;-79
2023/07/04 10:08:51;;;;;;;;;1.00;1.00;;;;;26.62;77.65;101150.59;5111594;27;46178;-79
2023/07/04 10:11:29;;;;;;;;;1.00;1.00;;;;;26.71;77.53;101140.91;5098872;27;45727;-79
2023/07/04 10:13:59;;;;;;;;;1.50;1.00;;;;;26.84;75.71;101135.28;5088606;27;45546;-79
2023/07/04 10:16:25;;;;;;;;;1.50;1.00;;;;;26.94;75.61;101143.28;5096759;27;45635;-81
2023/07/04 10:18:50;;;;;;;;;2.25;1.00;;;;;27.06;76.83;101133.28;5097663;27;73987;-81
2023/07/04 10:21:16;;;;;;;;;1.25;1.00;;;;;27.15;73.82;101141.28;5117392;27;45654;-80
2023/07/04 10:23:41;;;;;;;;;1.50;0.00;;;;;27.18;73.77;101126.81;5098773;27;45558;-81
2023/07/04 10:26:08;;;;;;;;;2.50;1.50;;;;;27.39;72.97;101138.19;5098884;27;61290;-81
2023/07/04 10:28:33;;;;;;;;;3.25;1.00;;;;;27.49;72.04;101127.47;5097838;27;73089;-80
2023/07/04 10:31:10;;;;;;;;;1.00;1.00;;;;;27.45;71.09;101130.56;5098917;27;52882;-81
2023/07/04 10:33:44;;;;;;;;;3.00;1.00;;;;;27.49;69.95;101140.84;5092869;27;45412;-81
2023/07/04 10:36:13;;;;;;;;;0.25;0.25;;;;;27.54;70.79;101124.34;5096336;27;45482;-79
2023/07/04 10:38:45;;;;;;;;;3.00;2.00;;;;;27.68;71.96;101120.38;5098766;27;47460;-81
2023/07/04 10:41:40;;;;;;;;;3.50;1.00;;;;;27.88;72.45;101113.97;5089969;27;45415;-79
2023/07/04 10:44:09;;;;;;;;;1.75;1.00;;;;;28.08;71.40;101114.72;5109727;27;45364;-81
2023/07/04 10:46:51;;;;;;;;;5.00;1.00;;;;;28.37;72.11;101114.53;5097881;27;45586;-81
2023/07/04 10:49:19;;;;;;;;;2.00;1.00;;;;;28.61;70.09;101109.59;5088558;27;47059;-78
2023/07/04 10:51:47;;;;;;;;;3.25;1.50;;;;;28.78;69.00;101111.44;5095679;27;45465;-78
2023/07/04 10:54:13;;;;;;;;;3.00;2.75;;;;;28.81;66.36;101110.25;5093793;27;45532;-78
2023/07/04 10:56:43;;;;;;;;;3.75;1.75;;;;;28.85;66.48;101095.59;5117284;27;45662;-78
2023/07/04 10:59:39;;;;;;;;;3.00;1.50;;;;;29.01;67.68;101101.06;5098230;27;45410;-79
2023/07/04 11:02:22;;;;;;;;;1.50;1.00;;;;;29.03;66.12;101106.25;5079836;27;45606;-78
2023/07/04 11:04:48;;;;;;;;;1.25;1.25;;;;;28.93;63.67;101095.63;5116569;27;45554;-78
2023/07/04 11:07:20;;;;;;;;;4.25;2.00;;;;;28.88;64.94;101090.75;5097178;27;66746;-78
2023/07/04 11:09:47;;;;;;;;;3.25;1.75;;;;;28.67;64.86;101091.06;5097634;27;45735;-78
2023/07/04 11:12:16;;;;;;;;;2.75;1.00;;;;;28.34;65.45;101081.88;5098594;27;45427;-80
2023/07/04 11:14:42;;;;;;;;;1.00;1.00;;;;;28.12;66.60;101094.69;5098525;27;45810;-80
2023/07/04 11:17:14;;;;;;;;;2.25;1.00;;;;;28.01;68.34;101089.56;5098467;27;45381;-80
2023/07/04 11:20:16;;;;;;;;;2.75;1.75;;;;;27.98;70.38;101069.28;5098162;27;45798;-79
2023/07/04 11:22:51;;;;;;;;;2.00;2.00;;;;;27.90;68.66;101071.03;5108884;27;45528;-79